Terminal Aerodrome Forecast
Issued by NWS Mt. Holly, NJ

Home | Current Version | Previous Version | Text Only | Print | Product List | Glossary On
Versions: 1 2 3 4 5 6 7 8 9 10 11 12 13 14 15 16 17 18 19 20 21 22 23 24 25 26 27
375
FTUS41 KPHI 101420 AAB
TAFACY
TAF AMD
KACY 101420Z 1014/1112 28012G19KT 1 1/2SM -SN BR SCT013 BKN018
      OVC026
      TEMPO 1014/1016 3/4SM -SN BR OVC008
     FM101600 28015G25KT P6SM BKN050
     FM102200 28009KT P6SM BKN040=

USA.gov is the U.S. government's official web portal to all federal, state and local government web resources and services.